Time;durP1;ratioP1;P1;durP2;ratioP2;P2;SDS_P1;SDS_P2;PMS_P1;PMS_P2;Temp;Humidity;BMP_temperature;BMP_pressure;BME280_temperature;BME280_humidity;BME280_pressure;Samples;Min_cycle;Max_cycle;Signal;HPM_P1;HPM_P2
2022/08/04 00:01:26;;;;;;;7.60;3.55;;;;;;;;;;4985845;28;20058;-49
2022/08/04 00:04:41;;;;;;;10.75;3.55;;;;;;;;;;4983680;28;20121;-51
2022/08/04 00:08:02;;;;;;;11.13;3.35;;;;;;;;;;4987387;28;20053;-50
2022/08/04 00:10:57;;;;;;;8.05;3.65;;;;;;;;;;4949265;28;20047;-51
2022/08/04 00:14:11;;;;;;;3.88;3.25;;;;;;;;;;4948048;29;20023;-50
2022/08/04 00:16:57;;;;;;;5.15;3.30;;;;;;;;;;4948558;29;20038;-50
2022/08/04 00:19:46;;;;;;;4.65;3.40;;;;;;;;;;4949837;29;20385;-53
2022/08/04 00:22:33;;;;;;;5.93;3.05;;;;;;;;;;4949750;28;20114;-51
2022/08/04 00:25:19;;;;;;;3.97;3.30;;;;;;;;;;4949190;29;20130;-49
2022/08/04 00:28:05;;;;;;;5.57;3.35;;;;;;;;;;4947292;29;20035;-55
2022/08/04 00:30:52;;;;;;;9.10;3.40;;;;;;;;;;4948357;29;20551;-51
2022/08/04 00:33:39;;;;;;;5.63;3.55;;;;;;;;;;4949920;28;20039;-48
2022/08/04 00:36:25;;;;;;;3.05;2.70;;;;;;;;;;4967990;28;20035;-50
2022/08/04 00:39:13;;;;;;;3.50;3.00;;;;;;;;;;4969595;28;20752;-52
2022/08/04 00:42:35;;;;;;;6.53;3.03;;;;;;;;;;4969553;28;20055;-50
2022/08/04 00:45:45;;;;;;;6.60;3.00;;;;;;;;;;4967807;28;20566;-48
2022/08/04 00:48:54;;;;;;;4.40;3.03;;;;;;;;;;5007431;28;20494;-49
2022/08/04 00:51:45;;;;;;;6.40;3.38;;;;;;;;;;5001848;28;20028;-50
2022/08/04 00:54:52;;;;;;;3.70;3.00;;;;;;;;;;5009025;28;20034;-55
2022/08/04 00:58:07;;;;;;;3.88;3.10;;;;;;;;;;5010487;28;20052;-50
2022/08/04 01:01:05;;;;;;;3.55;2.65;;;;;;;;;;5007822;28;20029;-52
2022/08/04 01:04:00;;;;;;;3.03;2.80;;;;;;;;;;5007704;28;20033;-54
2022/08/04 01:07:06;;;;;;;5.03;2.70;;;;;;;;;;5007640;28;20065;-52
2022/08/04 01:10:02;;;;;;;3.05;2.30;;;;;;;;;;5001467;28;20470;-50
2022/08/04 01:12:57;;;;;;;4.80;2.83;;;;;;;;;;5006026;28;20036;-51
2022/08/04 01:16:10;;;;;;;3.72;2.63;;;;;;;;;;5007829;28;20025;-50
2022/08/04 01:19:01;;;;;;;4.07;2.55;;;;;;;;;;5003270;28;20482;-51
2022/08/04 01:22:04;;;;;;;4.05;2.80;;;;;;;;;;5005670;28;20053;-54
2022/08/04 01:25:08;;;;;;;8.45;3.08;;;;;;;;;;5001915;28;20042;-51
2022/08/04 01:28:16;;;;;;;9.48;2.80;;;;;;;;;;5006770;28;20475;-49
2022/08/04 01:31:15;;;;;;;4.60;2.50;;;;;;;;;;5007135;28;20057;-50
2022/08/04 01:34:05;;;;;;;4.75;2.72;;;;;;;;;;5006455;28;20030;-49
2022/08/04 01:37:07;;;;;;;4.22;2.70;;;;;;;;;;5003946;28;20030;-52
2022/08/04 01:40:05;;;;;;;3.17;2.88;;;;;;;;;;5007537;28;20038;-52
2022/08/04 01:42:52;;;;;;;6.32;2.70;;;;;;;;;;5006927;28;20037;-52
2022/08/04 01:45:40;;;;;;;3.50;3.15;;;;;;;;;;5009471;28;20038;-49
2022/08/04 01:48:27;;;;;;;7.55;2.92;;;;;;;;;;5005805;28;20061;-49
2022/08/04 01:51:13;;;;;;;6.70;3.10;;;;;;;;;;5005886;28;20220;-50
2022/08/04 01:53:58;;;;;;;3.78;3.00;;;;;;;;;;5007915;28;20259;-52
2022/08/04 01:56:49;;;;;;;4.35;2.90;;;;;;;;;;5005864;28;20111;-48
2022/08/04 01:59:35;;;;;;;4.72;2.90;;;;;;;;;;5006682;28;20472;-50
2022/08/04 02:02:23;;;;;;;7.45;3.03;;;;;;;;;;5005226;28;20026;-50
2022/08/04 02:05:10;;;;;;;4.05;3.05;;;;;;;;;;5005286;28;20040;-50
2022/08/04 02:08:20;;;;;;;7.88;3.42;;;;;;;;;;5007781;28;20029;-50
2022/08/04 02:11:16;;;;;;;3.88;3.05;;;;;;;;;;5003237;28;20108;-48
2022/08/04 02:14:41;;;;;;;8.57;3.13;;;;;;;;;;5005566;28;20038;-48
2022/08/04 02:17:44;;;;;;;6.38;3.05;;;;;;;;;;5006917;28;20067;-52
2022/08/04 02:20:42;;;;;;;7.97;2.83;;;;;;;;;;5005029;28;20045;-50
2022/08/04 02:23:42;;;;;;;3.47;3.17;;;;;;;;;;5005454;28;20478;-50
2022/08/04 02:26:31;;;;;;;4.57;2.80;;;;;;;;;;5007085;28;20537;-51
2022/08/04 02:29:32;;;;;;;3.58;3.00;;;;;;;;;;5005287;28;20037;-53
2022/08/04 02:32:26;;;;;;;5.75;2.90;;;;;;;;;;5006402;28;20045;-52
2022/08/04 02:35:23;;;;;;;5.55;3.03;;;;;;;;;;5004146;28;20501;-49
2022/08/04 02:38:22;;;;;;;4.10;2.83;;;;;;;;;;5006749;28;20033;-53
2022/08/04 02:41:10;;;;;;;3.90;3.10;;;;;;;;;;5005957;28;20092;-55
2022/08/04 02:43:58;;;;;;;5.38;3.30;;;;;;;;;;5005929;28;20526;-50
2022/08/04 02:46:45;;;;;;;4.63;3.10;;;;;;;;;;5003052;28;20505;-50
2022/08/04 02:49:35;;;;;;;3.95;2.67;;;;;;;;;;5005924;28;20037;-48
2022/08/04 02:52:22;;;;;;;5.55;3.40;;;;;;;;;;5001777;28;20029;-49
2022/08/04 02:55:10;;;;;;;7.63;3.00;;;;;;;;;;5001432;28;20057;-51
2022/08/04 02:58:02;;;;;;;5.18;3.17;;;;;;;;;;5006961;28;20050;-49
2022/08/04 03:00:50;;;;;;;7.28;2.78;;;;;;;;;;5004562;28;20029;-50
2022/08/04 03:03:39;;;;;;;6.38;2.80;;;;;;;;;;5003414;28;20042;-49
2022/08/04 03:06:58;;;;;;;5.65;2.97;;;;;;;;;;5006367;28;20911;-49
2022/08/04 03:10:15;;;;;;;4.50;3.13;;;;;;;;;;5003221;28;20062;-50
2022/08/04 03:13:35;;;;;;;5.90;3.05;;;;;;;;;;5004349;28;20478;-50
2022/08/04 03:16:39;;;;;;;3.83;2.80;;;;;;;;;;5009636;28;20442;-48
2022/08/04 03:20:08;;;;;;;3.88;2.78;;;;;;;;;;5009891;28;20034;-50
2022/08/04 03:23:18;;;;;;;5.80;2.90;;;;;;;;;;5013129;28;20363;-50
2022/08/04 03:26:22;;;;;;;2.85;2.65;;;;;;;;;;5007428;28;20072;-49
2022/08/04 03:29:23;;;;;;;4.22;2.83;;;;;;;;;;5007093;28;20068;-52
2022/08/04 03:32:42;;;;;;;8.50;3.00;;;;;;;;;;5008601;28;20113;-49
2022/08/04 03:36:16;;;;;;;4.22;2.75;;;;;;;;;;5010278;28;20041;-50
2022/08/04 03:39:20;;;;;;;4.68;3.20;;;;;;;;;;5005964;28;20041;-49
2022/08/04 03:42:24;;;;;;;6.45;2.67;;;;;;;;;;5006183;28;20448;-52
2022/08/04 03:45:22;;;;;;;5.15;3.00;;;;;;;;;;5006960;28;20387;-51
2022/08/04 03:48:13;;;;;;;11.18;2.95;;;;;;;;;;5008647;28;20037;-49
2022/08/04 03:54:52;;;;;;;3.70;2.80;;;;;;;;;;5006997;28;20040;-50
2022/08/04 03:58:15;;;;;;;2.83;2.60;;;;;;;;;;4968055;28;20038;-50
2022/08/04 04:01:10;;;;;;;3.67;3.05;;;;;;;;;;4968915;28;20121;-52
2022/08/04 04:04:09;;;;;;;3.83;2.60;;;;;;;;;;4968322;28;20035;-49
2022/08/04 04:07:32;;;;;;;4.20;2.80;;;;;;;;;;4968242;28;20054;-51
2022/08/04 04:10:31;;;;;;;4.18;2.85;;;;;;;;;;4962992;28;20039;-51
2022/08/04 04:13:56;;;;;;;4.53;3.10;;;;;;;;;;4967844;28;20070;-48
2022/08/04 04:17:00;;;;;;;5.35;3.22;;;;;;;;;;4966875;28;20500;-50
2022/08/04 04:19:46;;;;;;;5.93;3.00;;;;;;;;;;4968153;28;21022;-51
2022/08/04 04:22:53;;;;;;;2.83;2.63;;;;;;;;;;4967496;28;20023;-52
2022/08/04 04:26:06;;;;;;;8.27;3.00;;;;;;;;;;4966238;28;20034;-48
2022/08/04 04:29:27;;;;;;;3.55;2.58;;;;;;;;;;4967989;28;20034;-50
2022/08/04 04:32:21;;;;;;;7.07;2.60;;;;;;;;;;4969795;28;20472;-48
2022/08/04 04:35:10;;;;;;;7.95;2.90;;;;;;;;;;5006895;28;20029;-51
2022/08/04 04:38:28;;;;;;;4.45;2.90;;;;;;;;;;5007289;28;20770;-49
2022/08/04 04:41:25;;;;;;;4.40;2.72;;;;;;;;;;5005480;28;20113;-48
2022/08/04 04:44:34;;;;;;;6.07;2.97;;;;;;;;;;5006339;28;20029;-50
2022/08/04 04:47:48;;;;;;;4.85;2.97;;;;;;;;;;5006269;28;20388;-48
2022/08/04 04:50:57;;;;;;;7.57;3.13;;;;;;;;;;5006011;28;20046;-49
2022/08/04 04:53:50;;;;;;;3.88;2.80;;;;;;;;;;5006300;28;20069;-48
2022/08/04 04:56:54;;;;;;;5.88;2.70;;;;;;;;;;5008906;28;20037;-49
2022/08/04 04:59:55;;;;;;;5.30;3.13;;;;;;;;;;5008160;28;20038;-51
2022/08/04 05:03:01;;;;;;;3.40;2.75;;;;;;;;;;5003902;28;20104;-49
2022/08/04 05:06:09;;;;;;;6.15;3.58;;;;;;;;;;5006694;28;20084;-48
2022/08/04 05:09:21;;;;;;;15.15;4.18;;;;;;;;;;5009084;28;20398;-48
2022/08/04 05:12:43;;;;;;;9.10;3.63;;;;;;;;;;5007865;28;20034;-48
2022/08/04 05:15:33;;;;;;;5.45;3.83;;;;;;;;;;5004296;28;20048;-48
2022/08/04 05:18:23;;;;;;;8.68;4.40;;;;;;;;;;5005082;28;20038;-51
2022/08/04 05:21:24;;;;;;;5.40;4.18;;;;;;;;;;5007654;28;20088;-49
2022/08/04 05:24:14;;;;;;;8.00;4.90;;;;;;;;;;5006749;28;20385;-48
2022/08/04 05:27:04;;;;;;;11.95;4.32;;;;;;;;;;5005765;28;20038;-49
2022/08/04 05:30:02;;;;;;;12.90;4.93;;;;;;;;;;5003384;28;20030;-48
2022/08/04 05:33:30;;;;;;;7.55;6.28;;;;;;;;;;5004218;28;20025;-49
2022/08/04 05:36:20;;;;;;;11.52;7.20;;;;;;;;;;5006224;28;20056;-48
2022/08/04 05:39:11;;;;;;;9.98;7.95;;;;;;;;;;5004548;28;20480;-48
2022/08/04 05:41:58;;;;;;;11.60;6.90;;;;;;;;;;5005274;28;20029;-47
2022/08/04 05:44:45;;;;;;;10.52;7.00;;;;;;;;;;5003491;28;20038;-50
2022/08/04 05:47:32;;;;;;;12.18;7.18;;;;;;;;;;5008329;28;20068;-48
2022/08/04 05:50:18;;;;;;;12.05;6.90;;;;;;;;;;5004082;28;20472;-48
2022/08/04 05:53:05;;;;;;;11.18;7.05;;;;;;;;;;5004700;28;20097;-48
2022/08/04 05:55:51;;;;;;;8.23;7.45;;;;;;;;;;5005625;28;20029;-52
2022/08/04 05:58:37;;;;;;;10.23;7.32;;;;;;;;;;5003075;28;20142;-49
2022/08/04 06:01:23;;;;;;;9.55;8.07;;;;;;;;;;5007224;28;20375;-49
2022/08/04 06:04:11;;;;;;;9.27;7.32;;;;;;;;;;5005266;28;20087;-49
2022/08/04 06:06:57;;;;;;;10.45;9.07;;;;;;;;;;5003866;28;20492;-49
2022/08/04 06:09:43;;;;;;;9.98;7.10;;;;;;;;;;5007015;28;20509;-49
2022/08/04 06:12:36;;;;;;;5.72;5.13;;;;;;;;;;5004721;28;20021;-48
2022/08/04 06:15:25;;;;;;;8.23;7.22;;;;;;;;;;5004066;28;20057;-55
2022/08/04 06:18:12;;;;;;;9.57;6.65;;;;;;;;;;5005402;28;20068;-48
2022/08/04 06:21:01;;;;;;;10.05;7.78;;;;;;;;;;5006576;28;20057;-49
2022/08/04 06:23:48;;;;;;;11.00;8.30;;;;;;;;;;5005414;28;20084;-50
2022/08/04 06:26:35;;;;;;;13.93;8.82;;;;;;;;;;5005865;28;20509;-48
2022/08/04 06:29:25;;;;;;;11.38;8.75;;;;;;;;;;5005370;28;20038;-49
2022/08/04 06:33:01;;;;;;;18.63;11.00;;;;;;;;;;5005430;28;20721;-48
2022/08/04 06:35:20;;;;;;;14.77;11.52;;;;;;;;;;5004841;28;20573;-48
2022/08/04 06:38:07;;;;;;;16.55;11.88;;;;;;;;;;5001949;28;20026;-49
2022/08/04 06:40:56;;;;;;;12.30;10.48;;;;;;;;;;5007196;28;20510;-49
2022/08/04 06:43:42;;;;;;;14.77;11.68;;;;;;;;;;5006795;28;20544;-48
2022/08/04 06:46:29;;;;;;;17.75;12.00;;;;;;;;;;5005602;28;20022;-49
2022/08/04 06:49:17;;;;;;;21.73;13.18;;;;;;;;;;5007006;28;20033;-48
2022/08/04 06:52:04;;;;;;;18.10;13.25;;;;;;;;;;5010185;28;20467;-50
2022/08/04 06:54:51;;;;;;;22.00;15.73;;;;;;;;;;5010957;28;20038;-51
2022/08/04 06:57:39;;;;;;;21.60;15.07;;;;;;;;;;5008163;28;20610;-49
2022/08/04 07:00:25;;;;;;;21.20;14.77;;;;;;;;;;5008764;28;20553;-49
2022/08/04 07:03:12;;;;;;;23.33;16.15;;;;;;;;;;5007570;28;20030;-50
2022/08/04 07:05:59;;;;;;;20.58;16.10;;;;;;;;;;5007486;28;20392;-53
2022/08/04 07:08:45;;;;;;;25.40;16.55;;;;;;;;;;5009295;28;20038;-49
2022/08/04 07:11:32;;;;;;;27.27;17.02;;;;;;;;;;5009358;28;20030;-48
2022/08/04 07:14:19;;;;;;;23.15;16.92;;;;;;;;;;5010303;28;20028;-46
2022/08/04 07:17:07;;;;;;;33.92;17.42;;;;;;;;;;5007744;28;20032;-50
2022/08/04 07:19:55;;;;;;;22.98;16.05;;;;;;;;;;5011000;28;20115;-48
2022/08/04 07:22:42;;;;;;;26.10;16.55;;;;;;;;;;5009791;28;20026;-49
2022/08/04 07:25:28;;;;;;;26.92;15.82;;;;;;;;;;5008814;28;20164;-48
2022/08/04 07:28:14;;;;;;;28.25;18.48;;;;;;;;;;5008994;28;20030;-48
2022/08/04 07:31:01;;;;;;;24.25;16.30;;;;;;;;;;5008946;28;20104;-48
2022/08/04 07:33:47;;;;;;;27.80;17.25;;;;;;;;;;5010147;28;20033;-48
2022/08/04 07:36:33;;;;;;;27.85;17.17;;;;;;;;;;5007333;28;20077;-51
2022/08/04 07:39:20;;;;;;;24.25;16.75;;;;;;;;;;5007311;28;20033;-48
2022/08/04 07:42:06;;;;;;;29.85;16.33;;;;;;;;;;5007671;28;20025;-50
2022/08/04 07:44:52;;;;;;;31.52;17.05;;;;;;;;;;5004973;28;20030;-49
2022/08/04 07:47:41;;;;;;;29.70;16.05;;;;;;;;;;5006091;28;20097;-47
2022/08/04 07:50:27;;;;;;;25.52;15.73;;;;;;;;;;5008413;28;20053;-49
2022/08/04 07:53:13;;;;;;;25.55;15.85;;;;;;;;;;5009200;28;20029;-49
2022/08/04 07:56:01;;;;;;;29.27;18.58;;;;;;;;;;5005249;28;20441;-51
2022/08/04 07:58:47;;;;;;;30.35;16.45;;;;;;;;;;5008770;28;20077;-51
2022/08/04 08:01:36;;;;;;;24.35;16.50;;;;;;;;;;5007482;28;20029;-48
2022/08/04 08:04:22;;;;;;;31.25;17.02;;;;;;;;;;5009233;28;20037;-49
2022/08/04 08:07:08;;;;;;;24.35;16.63;;;;;;;;;;5005806;28;20034;-53
2022/08/04 08:09:54;;;;;;;30.58;17.52;;;;;;;;;;5009628;28;20041;-50
2022/08/04 08:12:41;;;;;;;28.90;16.80;;;;;;;;;;5006171;28;20038;-48
2022/08/04 08:15:27;;;;;;;36.92;17.70;;;;;;;;;;5008807;28;20029;-49
2022/08/04 08:18:13;;;;;;;27.13;16.67;;;;;;;;;;5003792;28;20030;-52
2022/08/04 08:20:59;;;;;;;25.95;15.98;;;;;;;;;;5009085;28;20104;-51
2022/08/04 08:23:45;;;;;;;27.58;16.75;;;;;;;;;;5007554;28;20608;-48
2022/08/04 08:26:31;;;;;;;27.20;16.30;;;;;;;;;;5005231;28;20038;-51
2022/08/04 08:29:18;;;;;;;28.98;16.65;;;;;;;;;;5006967;28;20038;-54
2022/08/04 08:32:06;;;;;;;27.10;16.52;;;;;;;;;;5009167;28;20500;-49
2022/08/04 08:34:52;;;;;;;27.55;16.30;;;;;;;;;;5007986;28;20129;-48
2022/08/04 08:37:46;;;;;;;24.23;15.13;;;;;;;;;;5008249;28;20478;-48
2022/08/04 08:40:44;;;;;;;30.25;16.75;;;;;;;;;;5007727;28;20029;-50
2022/08/04 08:43:44;;;;;;;30.45;16.83;;;;;;;;;;5007450;28;20025;-49
2022/08/04 08:46:36;;;;;;;27.63;16.67;;;;;;;;;;5006289;28;20029;-52
2022/08/04 08:49:44;;;;;;;27.08;16.65;;;;;;;;;;5008595;28;20021;-51
2022/08/04 08:52:43;;;;;;;25.20;16.08;;;;;;;;;;4964685;28;20054;-52
2022/08/04 08:55:38;;;;;;;42.95;15.85;;;;;;;;;;4967372;28;20050;-48
2022/08/04 08:58:57;;;;;;;23.75;15.10;;;;;;;;;;4965872;28;20094;-50
2022/08/04 09:01:50;;;;;;;25.33;15.05;;;;;;;;;;4965337;28;20039;-54
2022/08/04 09:05:13;;;;;;;22.52;15.30;;;;;;;;;;4968770;28;20046;-55
2022/08/04 09:08:21;;;;;;;23.73;14.48;;;;;;;;;;4964656;28;20439;-56
2022/08/04 09:11:33;;;;;;;21.60;14.20;;;;;;;;;;4964114;28;20065;-49
2022/08/04 09:14:27;;;;;;;21.30;13.73;;;;;;;;;;4967651;28;20043;-48
2022/08/04 09:17:40;;;;;;;21.83;14.35;;;;;;;;;;4965721;28;20046;-50
2022/08/04 09:20:48;;;;;;;20.98;14.02;;;;;;;;;;4968068;28;20214;-49
2022/08/04 09:24:06;;;;;;;22.15;13.90;;;;;;;;;;4967590;28;20035;-49
2022/08/04 09:26:59;;;;;;;22.00;15.32;;;;;;;;;;4928334;29;20049;-48
2022/08/04 09:29:55;;;;;;;26.15;13.80;;;;;;;;;;4954124;28;20205;-49
2022/08/04 09:32:57;;;;;;;19.75;13.35;;;;;;;;;;4967669;28;20054;-53
2022/08/04 09:35:52;;;;;;;27.00;15.02;;;;;;;;;;4964469;28;20042;-50
2022/08/04 09:38:48;;;;;;;22.85;13.63;;;;;;;;;;4966888;28;20452;-54
2022/08/04 09:41:52;;;;;;;23.00;13.23;;;;;;;;;;4964197;28;20042;-54
2022/08/04 09:45:16;;;;;;;21.40;12.23;;;;;;;;;;4967282;28;20117;-48
2022/08/04 09:48:10;;;;;;;22.58;12.63;;;;;;;;;;4967197;28;20451;-56
2022/08/04 09:50:58;;;;;;;16.23;10.63;;;;;;;;;;4965536;28;20110;-53
2022/08/04 09:54:08;;;;;;;16.60;9.95;;;;;;;;;;4967607;28;20027;-51
2022/08/04 09:57:14;;;;;;;14.10;8.27;;;;;;;;;;4966232;28;20479;-52
2022/08/04 10:00:05;;;;;;;12.50;6.40;;;;;;;;;;4966786;28;20423;-50
2022/08/04 10:02:54;;;;;;;17.10;5.00;;;;;;;;;;4996170;28;20093;-48
2022/08/04 10:06:01;;;;;;;10.25;4.50;;;;;;;;;;5003598;28;20042;-54
2022/08/04 10:09:24;;;;;;;6.40;4.28;;;;;;;;;;5007400;28;20113;-52
2022/08/04 10:12:22;;;;;;;9.95;4.97;;;;;;;;;;5004862;28;20034;-49
2022/08/04 10:15:47;;;;;;;11.52;4.57;;;;;;;;;;5003447;28;20095;-50
2022/08/04 10:19:08;;;;;;;9.15;4.60;;;;;;;;;;4966381;28;20535;-51
2022/08/04 10:22:14;;;;;;;6.97;4.40;;;;;;;;;;4929593;29;20405;-48
2022/08/04 10:25:54;;;;;;;16.20;4.95;;;;;;;;;;4930759;28;20044;-50
2022/08/04 10:28:46;;;;;;;8.82;5.03;;;;;;;;;;4871179;29;20041;-52
2022/08/04 10:31:38;;;;;;;11.52;5.07;;;;;;;;;;4869756;29;20041;-50
2022/08/04 10:34:30;;;;;;;15.77;5.25;;;;;;;;;;4870591;29;20448;-49
2022/08/04 10:37:27;;;;;;;10.38;5.20;;;;;;;;;;4869373;29;20101;-52
2022/08/04 10:40:39;;;;;;;6.47;4.07;;;;;;;;;;4871384;29;20028;-53
2022/08/04 10:43:34;;;;;;;11.57;4.43;;;;;;;;;;4870641;29;20045;-48
2022/08/04 10:46:31;;;;;;;9.00;4.45;;;;;;;;;;4871860;29;20033;-48
2022/08/04 10:49:34;;;;;;;6.35;3.67;;;;;;;;;;4871439;29;20033;-51
2022/08/04 10:52:43;;;;;;;3.70;2.70;;;;;;;;;;4870580;29;20518;-51
2022/08/04 10:55:47;;;;;;;11.13;2.95;;;;;;;;;;4895767;29;20056;-56
2022/08/04 10:58:41;;;;;;;3.88;2.40;;;;;;;;;;4946454;28;20059;-51
2022/08/04 11:01:32;;;;;;;8.48;2.67;;;;;;;;;;4951109;28;20031;-49
2022/08/04 11:04:33;;;;;;;3.97;2.35;;;;;;;;;;5002744;28;20186;-49
2022/08/04 11:07:21;;;;;;;4.13;2.80;;;;;;;;;;5001847;28;20105;-49
2022/08/04 11:10:08;;;;;;;5.50;2.38;;;;;;;;;;5006101;28;20045;-50
2022/08/04 11:12:59;;;;;;;12.27;2.40;;;;;;;;;;5004075;28;20113;-50
2022/08/04 11:15:56;;;;;;;6.30;2.33;;;;;;;;;;5007715;28;20364;-48
2022/08/04 11:18:48;;;;;;;2.22;2.10;;;;;;;;;;5004062;28;20402;-49
2022/08/04 11:21:41;;;;;;;6.70;1.95;;;;;;;;;;5004470;28;20053;-51
2022/08/04 11:24:39;;;;;;;5.30;1.90;;;;;;;;;;5003980;28;20032;-52
2022/08/04 11:27:34;;;;;;;6.45;2.13;;;;;;;;;;5005183;28;20819;-49
2022/08/04 11:30:20;;;;;;;2.60;1.90;;;;;;;;;;5004085;28;20034;-50
2022/08/04 11:33:10;;;;;;;2.13;1.98;;;;;;;;;;5005270;28;20109;-50
2022/08/04 11:36:39;;;;;;;3.72;1.90;;;;;;;;;;5007609;28;20026;-49
2022/08/04 11:39:34;;;;;;;5.28;1.70;;;;;;;;;;5006512;28;20449;-49
2022/08/04 11:42:36;;;;;;;2.22;1.50;;;;;;;;;;5010053;28;20040;-51
2022/08/04 11:46:05;;;;;;;5.97;1.40;;;;;;;;;;5008238;28;20521;-48
2022/08/04 11:49:07;;;;;;;1.83;1.27;;;;;;;;;;5008187;28;20038;-49
2022/08/04 11:51:55;;;;;;;2.20;0.90;;;;;;;;;;5008826;28;20103;-48
2022/08/04 11:54:43;;;;;;;6.97;1.15;;;;;;;;;;5007466;28;20402;-52
2022/08/04 11:57:29;;;;;;;1.42;1.10;;;;;;;;;;5003401;28;20046;-48
2022/08/04 12:00:18;;;;;;;4.97;1.20;;;;;;;;;;5007538;28;20430;-48
2022/08/04 12:03:41;;;;;;;1.73;0.75;;;;;;;;;;5009289;28;20018;-51
2022/08/04 12:07:03;;;;;;;9.73;1.50;;;;;;;;;;5006235;28;20085;-49
2022/08/04 12:10:14;;;;;;;9.35;1.60;;;;;;;;;;5008640;28;20818;-52
2022/08/04 12:13:15;;;;;;;1.70;0.90;;;;;;;;;;5007654;28;20029;-51
2022/08/04 12:16:19;;;;;;;3.38;1.35;;;;;;;;;;5009392;28;20873;-55
2022/08/04 12:19:15;;;;;;;5.57;1.20;;;;;;;;;;5007324;28;20065;-51
2022/08/04 12:22:08;;;;;;;9.77;1.90;;;;;;;;;;5009645;28;20033;-49
2022/08/04 12:25:12;;;;;;;7.80;1.40;;;;;;;;;;5007752;28;20037;-52
2022/08/04 12:28:13;;;;;;;3.35;1.00;;;;;;;;;;5008600;28;20582;-53
2022/08/04 12:31:01;;;;;;;;;;;;;;;;;;5001295;28;20033;-51
2022/08/04 12:33:55;;;;;;;1.52;0.95;;;;;;;;;;5008318;28;19925;-56
2022/08/04 12:36:54;;;;;;;3.22;1.25;;;;;;;;;;5007290;28;20038;-54
2022/08/04 12:39:44;;;;;;;2.58;1.23;;;;;;;;;;5007937;28;20041;-53
2022/08/04 12:42:39;;;;;;;6.75;1.45;;;;;;;;;;5007889;28;20033;-56
2022/08/04 12:45:25;;;;;;;4.10;1.20;;;;;;;;;;5005816;28;20076;-56
2022/08/04 12:48:12;;;;;;;9.35;1.27;;;;;;;;;;5005408;28;20367;-52
2022/08/04 12:50:58;;;;;;;5.07;0.93;;;;;;;;;;5007559;28;20411;-49
2022/08/04 12:53:44;;;;;;;1.75;1.10;;;;;;;;;;5005354;28;20030;-54
2022/08/04 12:56:31;;;;;;;1.88;0.88;;;;;;;;;;5007116;28;20154;-54
2022/08/04 12:59:19;;;;;;;1.25;0.90;;;;;;;;;;5008792;28;20522;-55
2022/08/04 13:02:13;;;;;;;4.68;1.20;;;;;;;;;;5005733;28;20117;-56
2022/08/04 13:05:03;;;;;;;7.80;1.80;;;;;;;;;;5009029;28;20064;-49
2022/08/04 13:07:51;;;;;;;9.93;1.38;;;;;;;;;;5004271;28;20499;-53
2022/08/04 13:10:40;;;;;;;1.52;1.08;;;;;;;;;;5005334;28;20514;-54
2022/08/04 13:13:30;;;;;;;11.98;1.70;;;;;;;;;;5006245;28;20475;-55
2022/08/04 13:16:16;;;;;;;1.60;1.17;;;;;;;;;;5005948;28;20034;-50
2022/08/04 13:19:06;;;;;;;2.67;1.38;;;;;;;;;;5005962;28;20431;-51
2022/08/04 13:21:53;;;;;;;5.53;1.10;;;;;;;;;;5003194;28;20041;-55
2022/08/04 13:24:40;;;;;;;1.98;1.40;;;;;;;;;;5008649;28;20061;-52
2022/08/04 13:27:27;;;;;;;6.75;1.13;;;;;;;;;;5008403;28;20034;-53
2022/08/04 13:30:17;;;;;;;6.03;1.40;;;;;;;;;;5005290;28;20127;-51
2022/08/04 13:33:04;;;;;;;3.53;1.20;;;;;;;;;;5007337;28;20030;-52
2022/08/04 13:35:49;;;;;;;3.97;1.25;;;;;;;;;;5003675;28;20037;-54
2022/08/04 13:38:38;;;;;;;5.20;1.25;;;;;;;;;;5006464;28;20055;-49
2022/08/04 13:41:27;;;;;;;5.47;1.40;;;;;;;;;;5007756;28;20117;-50
2022/08/04 13:44:13;;;;;;;3.92;1.30;;;;;;;;;;5007806;28;20112;-52
2022/08/04 13:47:06;;;;;;;5.60;1.17;;;;;;;;;;5004813;28;20149;-49
2022/08/04 13:50:15;;;;;;;8.32;1.60;;;;;;;;;;5007304;28;20030;-49
2022/08/04 13:53:02;;;;;;;5.90;1.63;;;;;;;;;;5007095;28;20655;-49
2022/08/04 13:55:48;;;;;;;6.82;1.50;;;;;;;;;;5005602;28;20070;-50
2022/08/04 13:58:40;;;;;;;6.53;1.67;;;;;;;;;;5007623;28;20046;-49
2022/08/04 14:01:27;;;;;;;9.75;1.63;;;;;;;;;;5004501;28;20025;-51
2022/08/04 14:04:24;;;;;;;1.73;1.38;;;;;;;;;;5005215;28;20088;-51
2022/08/04 14:07:15;;;;;;;6.88;1.48;;;;;;;;;;5005516;28;20046;-48
2022/08/04 14:10:09;;;;;;;6.93;1.58;;;;;;;;;;5002898;28;20149;-49
2022/08/04 14:12:56;;;;;;;5.65;1.48;;;;;;;;;;5006868;28;20042;-49
2022/08/04 14:15:44;;;;;;;3.42;1.13;;;;;;;;;;5004782;28;20038;-54
2022/08/04 14:18:31;;;;;;;1.70;1.40;;;;;;;;;;5003304;28;20169;-50
2022/08/04 14:21:17;;;;;;;3.08;1.30;;;;;;;;;;5003707;28;20081;-51
2022/08/04 14:24:03;;;;;;;4.50;1.52;;;;;;;;;;5003753;28;20403;-51
2022/08/04 14:26:49;;;;;;;5.63;1.60;;;;;;;;;;5001688;28;20407;-50
2022/08/04 14:29:37;;;;;;;4.00;1.10;;;;;;;;;;5005857;28;20559;-52
2022/08/04 14:32:23;;;;;;;2.42;1.55;;;;;;;;;;5005269;28;20037;-51
2022/08/04 14:35:10;;;;;;;3.78;1.20;;;;;;;;;;5005472;28;20501;-49
2022/08/04 14:37:58;;;;;;;4.88;1.40;;;;;;;;;;5006851;28;20445;-55
2022/08/04 14:40:44;;;;;;;3.85;1.23;;;;;;;;;;5003057;28;20026;-52
2022/08/04 14:43:30;;;;;;;5.88;1.70;;;;;;;;;;5002382;28;20466;-52
2022/08/04 14:46:16;;;;;;;1.40;1.30;;;;;;;;;;5005122;28;20056;-50
2022/08/04 14:49:12;;;;;;;10.05;1.63;;;;;;;;;;5005618;28;20026;-50
2022/08/04 14:52:00;;;;;;;3.25;1.50;;;;;;;;;;5007372;28;20155;-53
2022/08/04 14:54:46;;;;;;;1.60;1.50;;;;;;;;;;5006224;28;20026;-52
2022/08/04 14:57:35;;;;;;;2.78;1.50;;;;;;;;;;5003554;28;20407;-48
2022/08/04 15:00:29;;;;;;;2.10;1.67;;;;;;;;;;5005224;28;20049;-53
2022/08/04 15:03:17;;;;;;;3.38;1.70;;;;;;;;;;5004623;28;20038;-53
2022/08/04 15:06:03;;;;;;;2.15;1.40;;;;;;;;;;5003005;28;20046;-51
2022/08/04 15:08:52;;;;;;;1.95;1.50;;;;;;;;;;5006306;28;20475;-50
2022/08/04 15:11:38;;;;;;;3.78;1.80;;;;;;;;;;5010459;28;20109;-51
2022/08/04 15:14:24;;;;;;;5.10;1.77;;;;;;;;;;5010431;28;20034;-48
2022/08/04 15:17:11;;;;;;;8.27;2.15;;;;;;;;;;5008367;28;20034;-50
2022/08/04 15:19:58;;;;;;;4.55;1.92;;;;;;;;;;5008379;28;20038;-56
2022/08/04 15:22:44;;;;;;;2.90;1.90;;;;;;;;;;5010008;28;20026;-49
2022/08/04 15:25:38;;;;;;;5.00;2.05;;;;;;;;;;5007639;28;20026;-56
2022/08/04 15:28:28;;;;;;;7.97;1.88;;;;;;;;;;5008909;28;20116;-52
2022/08/04 15:31:16;;;;;;;2.70;2.05;;;;;;;;;;5007464;28;20030;-54
2022/08/04 15:34:02;;;;;;;4.65;1.75;;;;;;;;;;5005429;28;20046;-51
2022/08/04 15:36:53;;;;;;;2.03;1.90;;;;;;;;;;5006674;28;20057;-51
2022/08/04 15:40:04;;;;;;;3.20;2.10;;;;;;;;;;5008218;28;20056;-56
2022/08/04 15:43:09;;;;;;;5.13;2.20;;;;;;;;;;4969267;28;20619;-52
2022/08/04 15:45:59;;;;;;;6.70;2.20;;;;;;;;;;4967558;28;20420;-49
2022/08/04 15:48:44;;;;;;;4.35;2.35;;;;;;;;;;4966889;28;20035;-48
2022/08/04 15:51:30;;;;;;;2.40;2.20;;;;;;;;;;4964282;28;20046;-49
2022/08/04 15:54:19;;;;;;;2.55;2.00;;;;;;;;;;4967889;28;20076;-51
2022/08/04 15:57:05;;;;;;;4.68;2.05;;;;;;;;;;4966831;28;20089;-52
2022/08/04 15:59:54;;;;;;;2.45;1.98;;;;;;;;;;4969858;28;20031;-51
2022/08/04 16:02:42;;;;;;;2.95;1.55;;;;;;;;;;4970360;28;20039;-52
2022/08/04 16:05:29;;;;;;;2.00;1.80;;;;;;;;;;4969351;28;20126;-54
2022/08/04 16:08:16;;;;;;;5.90;2.05;;;;;;;;;;4968457;28;20035;-49
2022/08/04 16:11:02;;;;;;;5.78;1.90;;;;;;;;;;4969953;28;20085;-51
2022/08/04 16:14:03;;;;;;;2.08;1.90;;;;;;;;;;4967651;28;20034;-49
2022/08/04 16:16:49;;;;;;;5.00;2.00;;;;;;;;;;4968400;28;20705;-49
2022/08/04 16:19:50;;;;;;;2.33;1.42;;;;;;;;;;4985209;28;20036;-49
2022/08/04 16:22:39;;;;;;;2.00;1.80;;;;;;;;;;5006449;28;20041;-49
2022/08/04 16:25:49;;;;;;;1.98;1.80;;;;;;;;;;5001193;28;20040;-53
2022/08/04 16:28:40;;;;;;;2.55;2.20;;;;;;;;;;5006860;28;20104;-50
2022/08/04 16:31:26;;;;;;;6.73;2.37;;;;;;;;;;5004384;28;20112;-49
2022/08/04 16:34:12;;;;;;;2.08;1.88;;;;;;;;;;5009511;28;20034;-52
2022/08/04 16:36:59;;;;;;;2.28;2.08;;;;;;;;;;5008221;28;20030;-55
2022/08/04 16:39:46;;;;;;;3.97;2.40;;;;;;;;;;5008307;28;20030;-50
2022/08/04 16:42:33;;;;;;;2.63;2.35;;;;;;;;;;5006133;28;20499;-53
2022/08/04 16:45:19;;;;;;;3.97;2.88;;;;;;;;;;5008791;28;20529;-48
2022/08/04 16:48:09;;;;;;;4.47;2.38;;;;;;;;;;5007331;28;20121;-49
2022/08/04 16:50:58;;;;;;;2.40;2.20;;;;;;;;;;5007426;28;20030;-50
2022/08/04 16:53:46;;;;;;;6.07;2.20;;;;;;;;;;5007769;28;20123;-55
2022/08/04 16:56:33;;;;;;;4.82;2.65;;;;;;;;;;5005773;28;20474;-50
2022/08/04 16:59:20;;;;;;;7.35;2.30;;;;;;;;;;5006918;28;20053;-50
2022/08/04 17:02:08;;;;;;;6.82;2.55;;;;;;;;;;5006028;28;20423;-49
2022/08/04 17:04:54;;;;;;;3.15;2.67;;;;;;;;;;5006375;28;20018;-51
2022/08/04 17:07:53;;;;;;;3.22;2.40;;;;;;;;;;5003638;28;20132;-52
2022/08/04 17:10:41;;;;;;;3.95;2.53;;;;;;;;;;5007992;28;20036;-48
2022/08/04 17:13:34;;;;;;;3.30;2.70;;;;;;;;;;5001883;28;20045;-50
2022/08/04 17:16:22;;;;;;;2.65;2.22;;;;;;;;;;5009003;28;20029;-48
2022/08/04 17:19:09;;;;;;;12.18;3.05;;;;;;;;;;5005167;28;20034;-50
2022/08/04 17:22:06;;;;;;;2.53;2.20;;;;;;;;;;5007423;28;20044;-49
2022/08/04 17:24:51;;;;;;;2.63;2.40;;;;;;;;;;5006034;28;20486;-51